createdAt,value
2022-08-11T00:02:01.211Z,1.55
2022-08-11T00:04:37.150Z,1.50
2022-08-11T00:07:06.827Z,1.52
2022-08-11T00:09:40.143Z,1.30
2022-08-11T00:12:16.341Z,1.33
2022-08-11T00:14:44.512Z,1.45
2022-08-11T00:17:15.933Z,1.42
2022-08-11T00:20:13.672Z,1.52
2022-08-11T00:22:40.036Z,1.50
2022-08-11T00:25:13.960Z,1.60
2022-08-11T00:27:42.015Z,1.55
2022-08-11T00:30:12.262Z,1.40
2022-08-11T00:32:44.001Z,1.20
2022-08-11T00:35:55.215Z,1.70
2022-08-11T00:38:07.438Z,1.30
2022-08-11T00:40:45.428Z,1.52
2022-08-11T00:43:41.716Z,1.40
2022-08-11T00:46:35.433Z,1.52
2022-08-11T00:49:17.273Z,1.60
2022-08-11T00:52:18.723Z,1.50
2022-08-11T00:55:34.039Z,1.50
2022-08-11T00:58:26.399Z,1.58
2022-08-11T01:01:18.447Z,1.35
2022-08-11T01:04:17.485Z,1.40
2022-08-11T01:06:50.367Z,1.58
2022-08-11T01:09:44.717Z,1.55
2022-08-11T01:12:39.554Z,1.63
2022-08-11T01:15:37.833Z,1.60
2022-08-11T01:19:00.747Z,1.65
2022-08-11T01:22:23.717Z,1.38
2022-08-11T01:25:58.001Z,1.70
2022-08-11T01:29:28.124Z,1.77
2022-08-11T01:32:16.930Z,1.50
2022-08-11T01:35:12.033Z,1.52
2022-08-11T01:37:57.663Z,1.60
2022-08-11T01:40:57.294Z,1.40
2022-08-11T01:44:28.116Z,1.50
2022-08-11T01:47:52.942Z,1.70
2022-08-11T01:50:46.414Z,1.50
2022-08-11T01:53:35.621Z,1.60
2022-08-11T01:56:33.264Z,1.40
2022-08-11T01:59:12.280Z,1.50
2022-08-11T02:02:04.084Z,1.52
2022-08-11T02:05:03.219Z,1.50
2022-08-11T02:07:55.591Z,1.40
2022-08-11T02:11:35.355Z,1.88
2022-08-11T02:14:20.827Z,1.40
2022-08-11T02:16:53.768Z,1.30
2022-08-11T02:19:58.434Z,1.77
2022-08-11T02:22:54.457Z,1.63
2022-08-11T02:25:50.479Z,1.95
2022-08-11T04:11:20.181Z,1.85
2022-08-11T04:17:35.668Z,2.00
2022-08-11T04:20:42.811Z,1.80
2022-08-11T04:24:37.065Z,1.90
2022-08-11T04:27:50.544Z,2.80
2022-08-11T04:30:28.439Z,2.05
2022-08-11T04:33:10.621Z,2.08
2022-08-11T04:36:10.218Z,1.98
2022-08-11T04:39:14.997Z,1.92
2022-08-11T04:42:32.717Z,2.38
2022-08-11T04:45:47.818Z,1.75
2022-08-11T04:48:56.419Z,2.20
2022-08-11T04:52:37.658Z,2.13
2022-08-11T04:56:01.930Z,1.92
2022-08-11T04:59:41.102Z,1.90
2022-08-11T05:02:40.946Z,1.92
2022-08-11T05:05:55.365Z,1.98
2022-08-11T05:08:51.107Z,2.22
2022-08-11T05:11:52.282Z,2.10
2022-08-11T05:14:58.124Z,2.35
2022-08-11T05:17:57.604Z,2.33
2022-08-11T05:20:45.852Z,1.80
2022-08-11T05:23:33.269Z,2.30
2022-08-11T05:26:46.736Z,2.78
2022-08-11T05:29:57.563Z,3.25
2022-08-11T05:32:46.423Z,2.50
2022-08-11T05:35:59.818Z,2.55
2022-08-11T05:38:31.469Z,2.22
2022-08-11T05:41:18.354Z,2.20
2022-08-11T05:44:19.890Z,2.53
2022-08-11T05:47:08.294Z,2.70
2022-08-11T05:49:56.611Z,2.15
2022-08-11T05:52:55.510Z,2.65
2022-08-11T05:55:54.590Z,2.50
2022-08-11T05:58:42.684Z,2.30
2022-08-11T06:01:14.170Z,2.60
2022-08-11T06:04:04.669Z,2.50
2022-08-11T06:06:32.544Z,3.10
2022-08-11T06:09:01.063Z,2.63
2022-08-11T06:11:43.059Z,2.80
2022-08-11T06:14:15.530Z,2.30
2022-08-11T06:16:48.596Z,2.70
2022-08-11T06:19:21.222Z,2.90
2022-08-11T06:21:48.876Z,3.13
2022-08-11T06:24:16.546Z,3.40
2022-08-11T06:29:54.826Z,2.88
2022-08-11T06:32:35.998Z,2.80
2022-08-11T06:35:23.661Z,2.50
2022-08-11T06:38:12.107Z,2.63
2022-08-11T06:41:11.941Z,2.90
2022-08-11T06:44:16.384Z,2.80
2022-08-11T06:46:50.902Z,2.80
2022-08-11T06:49:51.135Z,2.90
2022-08-11T06:52:34.625Z,2.70
2022-08-11T06:55:56.897Z,2.60
2022-08-11T06:58:50.915Z,2.55
2022-08-11T07:01:37.072Z,2.97
2022-08-11T07:04:10.432Z,2.60
2022-08-11T07:07:14.491Z,2.08
2022-08-11T07:10:37.786Z,2.58
2022-08-11T07:13:39.441Z,2.33
2022-08-11T07:16:19.298Z,2.53
2022-08-11T07:19:20.514Z,2.88
2022-08-11T07:22:07.919Z,2.30
2022-08-11T07:25:26.231Z,2.70
2022-08-11T07:28:40.333Z,2.60
2022-08-11T07:31:17.658Z,2.80
2022-08-11T07:34:08.334Z,2.65
2022-08-11T07:36:51.356Z,3.10
2022-08-11T07:39:24.527Z,3.00
2022-08-11T07:41:54.721Z,3.15
2022-08-11T07:44:30.723Z,3.00
2022-08-11T07:47:19.464Z,2.90
2022-08-11T07:50:09.502Z,3.08
2022-08-11T07:52:40.464Z,2.78
2022-08-11T07:55:13.426Z,2.55
2022-08-11T07:58:15.849Z,2.45
2022-08-11T08:01:21.753Z,2.53
2022-08-11T08:04:09.652Z,2.47
2022-08-11T08:06:56.886Z,2.90
2022-08-11T08:09:44.032Z,2.75
2022-08-11T08:12:31.825Z,2.67
2022-08-11T08:15:20.292Z,2.90
2022-08-11T08:18:09.650Z,2.53
2022-08-11T08:20:50.071Z,3.05
2022-08-11T08:23:33.675Z,2.42
2022-08-11T08:26:26.577Z,2.38
2022-08-11T08:29:28.554Z,2.50
2022-08-11T08:34:57.202Z,2.63
2022-08-11T08:37:46.134Z,2.13
2022-08-11T08:40:15.224Z,2.67
2022-08-11T08:42:56.308Z,2.20
2022-08-11T08:45:25.666Z,2.22
2022-08-11T08:48:08.332Z,2.30
2022-08-11T08:51:22.930Z,2.47
2022-08-11T08:53:58.559Z,2.42
2022-08-11T08:56:28.924Z,2.08
2022-08-11T08:59:00.943Z,2.35
2022-08-11T09:01:41.173Z,2.03
2022-08-11T09:04:12.232Z,2.25
2022-08-11T09:06:50.071Z,1.95
2022-08-11T09:09:21.403Z,2.10
2022-08-11T09:11:55.482Z,2.35
2022-08-11T09:14:52.672Z,2.03
2022-08-11T09:17:21.937Z,2.08
2022-08-11T09:19:58.662Z,1.88
2022-08-11T09:22:46.838Z,2.05
2022-08-11T09:25:34.242Z,1.98
2022-08-11T09:28:04.864Z,2.17
2022-08-11T09:30:32.672Z,2.17
2022-08-11T09:33:04.887Z,2.10
2022-08-11T09:35:36.851Z,1.95
2022-08-11T09:38:25.125Z,1.98
2022-08-11T09:40:57.121Z,1.90
2022-08-11T09:43:45.217Z,2.10
2022-08-11T09:46:13.523Z,2.03
2022-08-11T09:48:45.844Z,2.05
2022-08-11T09:51:15.407Z,2.17
2022-08-11T09:54:02.613Z,1.92
2022-08-11T09:56:49.814Z,1.80
2022-08-11T09:59:21.617Z,1.85
2022-08-11T10:01:57.940Z,1.85
2022-08-11T10:04:45.880Z,2.08
2022-08-11T10:07:19.431Z,2.20
2022-08-11T10:10:01.930Z,2.63
2022-08-11T10:12:48.471Z,2.25
2022-08-11T10:15:34.871Z,1.80
2022-08-11T10:18:37.528Z,1.55
2022-08-11T10:21:44.002Z,1.95
2022-08-11T10:24:31.143Z,1.73
2022-08-11T10:27:00.849Z,2.22
2022-08-11T10:29:58.227Z,2.00
2022-08-11T10:32:59.031Z,1.98
2022-08-11T10:35:32.544Z,1.88
2022-08-11T10:38:06.630Z,2.05
2022-08-11T10:40:40.440Z,2.05
2022-08-11T10:44:01.279Z,2.35
2022-08-11T10:46:27.049Z,1.85
2022-08-11T10:49:03.024Z,2.15
2022-08-11T10:52:04.356Z,2.03
2022-08-11T10:54:56.290Z,1.95
2022-08-11T10:58:05.093Z,1.98
2022-08-11T11:00:40.672Z,1.70
2022-08-11T11:03:22.851Z,2.15
2022-08-11T11:06:28.183Z,1.60
2022-08-11T11:09:07.062Z,2.15
2022-08-11T11:12:04.184Z,1.75
2022-08-11T11:14:58.245Z,1.70
2022-08-11T11:20:36.612Z,1.88
2022-08-11T11:23:35.680Z,1.90
2022-08-11T11:26:28.032Z,1.90
2022-08-11T11:29:30.486Z,2.15
2022-08-11T11:32:18.015Z,1.55
2022-08-11T11:35:26.892Z,1.60
2022-08-11T11:38:04.062Z,1.98
2022-08-11T11:40:34.207Z,1.90
2022-08-11T11:43:02.338Z,1.77
2022-08-11T11:45:30.520Z,1.60
2022-08-11T11:48:01.044Z,1.73
2022-08-11T11:50:38.193Z,1.90
2022-08-11T11:53:10.879Z,2.00
2022-08-11T11:55:43.602Z,1.80
2022-08-11T11:58:55.518Z,1.70
2022-08-11T12:02:35.941Z,1.92
2022-08-11T12:05:10.364Z,2.00
2022-08-11T12:08:10.487Z,1.63
2022-08-11T12:11:02.271Z,1.85
2022-08-11T12:13:51.818Z,1.70
2022-08-11T12:16:33.910Z,1.75
2022-08-11T12:19:25.486Z,1.55
2022-08-11T12:22:14.417Z,1.90
2022-08-11T12:25:01.425Z,2.13
2022-08-11T12:27:31.272Z,2.15
2022-08-11T12:30:05.773Z,1.90
2022-08-11T12:32:38.466Z,1.77
2022-08-11T12:35:07.832Z,1.90
2022-08-11T12:37:47.051Z,2.05
2022-08-11T12:41:11.928Z,2.00
2022-08-11T12:43:56.894Z,1.98
2022-08-11T12:46:32.079Z,2.00
2022-08-11T12:49:27.083Z,1.88
2022-08-11T12:55:03.757Z,1.80
2022-08-11T12:58:01.266Z,1.83
2022-08-11T13:00:48.832Z,2.42
2022-08-11T13:03:38.565Z,1.88
2022-08-11T13:06:07.188Z,1.90
2022-08-11T13:08:38.246Z,2.10
2022-08-11T13:11:55.991Z,1.67
2022-08-11T13:14:15.348Z,1.67
2022-08-11T13:17:04.345Z,2.30
2022-08-11T13:19:32.765Z,2.00
2022-08-11T13:22:02.295Z,2.13
2022-08-11T13:24:34.064Z,2.38
2022-08-11T13:27:02.732Z,1.88
2022-08-11T13:29:30.558Z,1.95
2022-08-11T13:32:02.114Z,2.00
2022-08-11T13:34:32.097Z,1.58
2022-08-11T13:37:05.301Z,1.83
2022-08-11T13:39:35.349Z,2.17
2022-08-11T13:42:05.436Z,2.03
2022-08-11T13:44:38.482Z,1.92
2022-08-11T13:47:09.592Z,2.00
2022-08-11T13:49:40.314Z,1.42
2022-08-11T13:52:15.928Z,1.83
2022-08-11T13:54:47.888Z,1.90
2022-08-11T13:58:08.205Z,2.53
2022-08-11T14:00:25.064Z,1.65
2022-08-11T14:02:57.423Z,1.65
2022-08-11T14:05:40.410Z,1.70
2022-08-11T14:08:32.472Z,1.80
2022-08-11T14:12:23.834Z,1.70
2022-08-11T14:14:25.720Z,1.75
2022-08-11T14:16:57.989Z,2.15
2022-08-11T14:19:28.288Z,1.95
2022-08-11T14:22:09.209Z,1.90
2022-08-11T14:24:49.734Z,2.10
2022-08-11T14:28:31.984Z,2.00
2022-08-11T14:30:27.449Z,2.17
2022-08-11T14:32:57.416Z,1.98
2022-08-11T14:35:28.764Z,1.90
2022-08-11T14:37:59.286Z,2.08
2022-08-11T14:40:45.609Z,1.85
2022-08-11T14:44:14.154Z,1.90
2022-08-11T14:46:38.375Z,2.08
2022-08-11T14:49:05.744Z,2.10
2022-08-11T14:51:34.324Z,1.58
2022-08-11T14:54:21.082Z,2.10
2022-08-11T14:56:48.542Z,2.20
2022-08-11T14:59:19.150Z,1.75
2022-08-11T15:02:04.947Z,2.00
2022-08-11T15:04:35.130Z,1.55
2022-08-11T15:07:03.864Z,1.70
2022-08-11T15:09:31.932Z,1.70
2022-08-11T15:12:31.150Z,2.47
2022-08-11T15:15:16.652Z,1.70
2022-08-11T15:17:46.018Z,1.85
2022-08-11T15:20:38.820Z,2.35
2022-08-11T15:23:24.790Z,1.42
2022-08-11T15:25:59.758Z,1.67
2022-08-11T15:28:49.955Z,1.70
2022-08-11T15:31:41.991Z,1.83
2022-08-11T15:34:39.098Z,1.88
2022-08-11T15:37:29.495Z,1.80
2022-08-11T15:40:36.785Z,2.00
2022-08-11T15:43:48.103Z,1.95
2022-08-11T15:46:30.516Z,2.03
2022-08-11T15:49:22.042Z,1.95
2022-08-11T15:52:10.153Z,1.77
2022-08-11T15:54:43.964Z,1.60
2022-08-11T15:57:39.418Z,1.50
2022-08-11T16:00:29.321Z,1.65
2022-08-11T16:03:20.065Z,2.10
2022-08-11T16:05:53.215Z,2.22
2022-08-11T16:08:26.768Z,1.90
2022-08-11T16:11:01.225Z,1.55
2022-08-11T16:13:32.937Z,1.65
2022-08-11T16:16:14.934Z,1.67
2022-08-11T16:18:56.560Z,1.90
2022-08-11T16:21:36.137Z,1.60
2022-08-11T16:26:30.613Z,2.00
2022-08-11T16:27:13.695Z,1.50
2022-08-11T16:29:45.550Z,1.70
2022-08-11T16:32:23.391Z,1.90
2022-08-11T16:35:26.221Z,1.70
2022-08-11T16:38:15.257Z,1.70
2022-08-11T16:40:44.974Z,1.85
2022-08-11T16:43:36.877Z,2.10
2022-08-11T16:46:25.773Z,1.70
2022-08-11T16:48:55.208Z,1.90
2022-08-11T16:51:23.234Z,1.80
2022-08-11T16:54:05.337Z,1.60
2022-08-11T16:56:43.549Z,1.77
2022-08-11T16:59:38.043Z,2.00
2022-08-11T17:02:35.589Z,1.98
2022-08-11T17:05:28.323Z,1.95
2022-08-11T17:08:19.375Z,2.00
2022-08-11T17:11:16.971Z,2.15
2022-08-11T17:13:52.236Z,1.93
2022-08-11T17:16:28.228Z,2.00
2022-08-11T17:19:02.323Z,1.77
2022-08-11T17:21:59.159Z,1.70
2022-08-11T17:24:28.492Z,1.70
2022-08-11T17:26:58.267Z,1.77
2022-08-11T17:29:54.779Z,1.90
2022-08-11T17:32:56.740Z,1.92
2022-08-11T17:35:33.172Z,2.05
2022-08-11T17:38:11.746Z,1.80
2022-08-11T17:41:03.409Z,1.90
2022-08-11T17:43:51.052Z,2.35
2022-08-11T17:46:38.011Z,1.90
2022-08-11T17:49:09.324Z,1.75
2022-08-11T17:51:58.349Z,1.60
2022-08-11T17:54:46.051Z,2.10
2022-08-11T17:57:33.898Z,2.05
2022-08-11T18:00:02.599Z,2.03
2022-08-11T18:03:07.327Z,2.20
2022-08-11T18:05:37.645Z,2.20
2022-08-11T18:08:28.794Z,2.15
2022-08-11T18:11:17.583Z,2.10
2022-08-11T18:14:28.886Z,2.00
2022-08-11T18:17:15.541Z,2.10
2022-08-11T18:20:01.113Z,2.05
2022-08-11T18:22:54.346Z,2.10
2022-08-11T18:25:46.006Z,1.75
2022-08-11T18:28:36.704Z,2.25
2022-08-11T18:31:26.594Z,1.85
2022-08-11T18:34:15.801Z,2.00
2022-08-11T18:37:39.400Z,2.00
2022-08-11T18:40:36.133Z,2.08
2022-08-11T18:43:27.850Z,2.08
2022-08-11T18:46:24.292Z,2.00
2022-08-11T18:49:27.263Z,2.30
2022-08-11T18:52:35.610Z,2.38
2022-08-11T18:55:26.316Z,2.03
2022-08-11T18:58:15.591Z,2.40
2022-08-11T19:01:05.058Z,2.20
2022-08-11T19:03:53.736Z,2.38
2022-08-11T19:06:43.258Z,2.28
2022-08-11T19:09:33.525Z,2.40
2022-08-11T19:12:22.669Z,2.63
2022-08-11T19:15:11.161Z,2.22
2022-08-11T19:18:03.757Z,2.33
2022-08-11T19:20:53.801Z,2.97
2022-08-11T19:23:51.219Z,2.80
2022-08-11T19:26:37.514Z,2.60
2022-08-11T19:30:04.986Z,2.72
2022-08-11T19:32:32.855Z,2.53
2022-08-11T19:35:21.983Z,2.65
2022-08-11T19:38:08.967Z,2.53
2022-08-11T19:40:58.764Z,2.85
2022-08-11T19:43:48.260Z,2.90
2022-08-11T19:46:42.770Z,2.85
2022-08-11T19:49:29.496Z,2.63
2022-08-11T19:52:17.646Z,2.83
2022-08-11T19:55:05.609Z,2.40
2022-08-11T19:57:54.606Z,2.60
2022-08-11T20:00:42.067Z,2.85
2022-08-11T20:03:32.366Z,2.70
2022-08-11T20:06:26.307Z,2.55
2022-08-11T20:09:18.898Z,2.45
2022-08-11T20:12:11.839Z,2.85
2022-08-11T20:15:01.554Z,2.78
2022-08-11T20:17:54.851Z,2.50
2022-08-11T20:20:44.244Z,2.60
2022-08-11T20:23:35.224Z,2.70
2022-08-11T20:27:01.852Z,2.85
2022-08-11T20:29:45.208Z,2.88
2022-08-11T20:32:31.644Z,2.20
2022-08-11T20:35:23.315Z,2.70
2022-08-11T20:38:14.023Z,2.53
2022-08-11T20:41:01.216Z,2.70
2022-08-11T20:44:05.745Z,2.10
2022-08-11T20:47:00.889Z,2.88
2022-08-11T20:49:53.994Z,2.78
2022-08-11T20:52:47.988Z,2.40
2022-08-11T20:55:46.199Z,2.58
2022-08-11T21:01:52.061Z,2.40
2022-08-11T21:04:37.878Z,2.40
2022-08-11T21:07:42.458Z,2.10
2022-08-11T21:10:30.876Z,1.95
2022-08-11T21:13:26.820Z,2.30
2022-08-11T21:16:25.758Z,2.35
2022-08-11T21:20:00.033Z,2.28
2022-08-11T21:22:59.633Z,2.03
2022-08-11T21:26:01.440Z,2.20
2022-08-11T21:28:50.073Z,2.17
2022-08-11T21:31:37.178Z,2.25
2022-08-11T21:34:26.919Z,2.50
2022-08-11T21:37:13.044Z,2.03
2022-08-11T21:40:01.558Z,2.13
2022-08-11T21:42:51.327Z,2.00
2022-08-11T21:45:39.015Z,2.30
2022-08-11T21:48:27.743Z,2.00
2022-08-11T21:51:13.304Z,2.10
2022-08-11T21:53:59.582Z,2.60
2022-08-11T21:56:47.062Z,2.28
2022-08-11T21:59:42.490Z,2.10
2022-08-11T22:05:15.483Z,2.08
2022-08-11T22:08:01.676Z,2.25
2022-08-11T22:10:47.565Z,2.10
2022-08-11T22:13:33.638Z,2.28
2022-08-11T22:16:19.566Z,1.52
2022-08-11T22:19:09.044Z,2.35
2022-08-11T22:22:03.056Z,2.03
2022-08-11T22:24:52.927Z,2.00
2022-08-11T22:27:39.657Z,1.85
2022-08-11T22:30:30.044Z,2.00
2022-08-11T22:33:26.971Z,2.10
2022-08-11T22:36:14.844Z,2.13
2022-08-11T22:39:04.526Z,1.92
2022-08-11T22:41:51.086Z,2.08
2022-08-11T22:44:38.095Z,2.00
2022-08-11T22:47:27.487Z,2.20
2022-08-11T22:50:26.856Z,2.13
2022-08-11T22:53:14.964Z,2.42
2022-08-11T22:56:00.649Z,1.98
2022-08-11T22:58:48.643Z,1.90
2022-08-11T23:01:36.126Z,2.10
2022-08-11T23:04:23.179Z,2.15
2022-08-11T23:07:09.525Z,1.98
2022-08-11T23:09:57.776Z,2.30
2022-08-11T23:12:43.523Z,2.30
2022-08-11T23:15:33.705Z,2.00
2022-08-11T23:18:24.430Z,2.05
2022-08-11T23:21:10.644Z,2.33
2022-08-11T23:23:57.170Z,2.03
2022-08-11T23:26:48.521Z,2.28
2022-08-11T23:29:35.360Z,2.30
2022-08-11T23:32:22.193Z,2.38
2022-08-11T23:35:38.444Z,2.38
2022-08-11T23:38:20.642Z,1.90
2022-08-11T23:41:06.243Z,2.22
2022-08-11T23:43:51.705Z,2.05
2022-08-11T23:46:40.147Z,2.55
2022-08-11T23:49:27.085Z,2.35
2022-08-11T23:52:14.473Z,2.00
2022-08-11T23:55:00.810Z,2.17
2022-08-11T23:57:48.802Z,2.10
